createdAt,value
2022-10-03T00:02:52.663Z,48.14
2022-10-03T00:08:14.391Z,48.09
2022-10-03T00:14:15.059Z,48.24
2022-10-03T00:20:08.854Z,47.82
2022-10-03T00:25:48.053Z,48.12
2022-10-03T00:31:15.301Z,48.02
2022-10-03T00:36:49.998Z,47.82
2022-10-03T00:42:40.316Z,48.04
2022-10-03T00:48:23.245Z,47.65
2022-10-03T00:53:50.944Z,47.95
2022-10-03T00:59:15.918Z,47.64
2022-10-03T01:04:58.324Z,47.75
2022-10-03T01:10:28.303Z,47.66
2022-10-03T01:16:20.352Z,47.83
2022-10-03T01:21:52.773Z,47.81
2022-10-03T01:27:25.237Z,47.65
2022-10-03T01:32:49.949Z,47.48
2022-10-03T01:38:24.971Z,47.72
2022-10-03T01:43:55.878Z,47.69
2022-10-03T01:49:26.040Z,47.87
2022-10-03T01:55:19.583Z,47.39
2022-10-03T02:01:04.551Z,47.62
2022-10-03T02:06:43.145Z,47.85
2022-10-03T02:12:30.337Z,47.71
2022-10-03T02:17:58.233Z,47.61
2022-10-03T02:23:44.172Z,47.34
2022-10-03T02:29:23.791Z,47.73
2022-10-03T02:35:08.052Z,47.67
2022-10-03T02:40:44.642Z,47.78
2022-10-03T02:46:43.884Z,47.47
2022-10-03T02:52:11.378Z,47.32
2022-10-03T02:57:41.901Z,47.77
2022-10-03T03:03:21.490Z,47.67
2022-10-03T03:09:01.535Z,47.26
2022-10-03T03:14:43.998Z,47.48
2022-10-03T03:20:37.551Z,47.29
2022-10-03T03:26:29.783Z,47.28
2022-10-03T03:32:02.217Z,47.25
2022-10-03T03:37:36.065Z,47.23
2022-10-03T03:43:34.582Z,47.60
2022-10-03T03:49:13.427Z,47.52
2022-10-03T03:54:59.301Z,47.55
2022-10-03T04:00:31.522Z,47.40
2022-10-03T04:06:13.199Z,47.29
2022-10-03T04:12:08.052Z,47.03
2022-10-03T04:18:04.160Z,47.28
2022-10-03T04:23:58.363Z,47.44
2022-10-03T04:29:19.943Z,47.25
2022-10-03T04:34:44.293Z,47.44
2022-10-03T04:40:24.044Z,47.13
2022-10-03T04:45:45.921Z,47.38
2022-10-03T04:51:32.277Z,47.49
2022-10-03T04:57:02.910Z,47.00
2022-10-03T05:02:36.968Z,47.14
2022-10-03T05:08:07.662Z,47.10
2022-10-03T05:13:41.282Z,47.41
2022-10-03T05:19:21.494Z,46.85
2022-10-03T05:24:56.332Z,46.96
2022-10-03T05:30:36.489Z,46.99
2022-10-03T05:36:06.282Z,46.93
2022-10-03T05:41:36.582Z,46.97
2022-10-03T05:47:03.825Z,46.95
2022-10-03T05:52:43.570Z,46.97
2022-10-03T05:58:20.588Z,46.79
2022-10-03T06:04:05.032Z,46.82
2022-10-03T06:09:27.649Z,47.05
2022-10-03T06:15:13.708Z,46.70
2022-10-03T06:20:47.118Z,46.68
2022-10-03T06:26:45.136Z,46.69
2022-10-03T06:32:47.098Z,46.93
2022-10-03T06:38:27.313Z,46.92
2022-10-03T06:44:11.225Z,46.71
2022-10-03T06:50:04.258Z,46.29
2022-10-03T06:55:44.103Z,46.14
2022-10-03T07:01:11.653Z,46.46
2022-10-03T07:07:05.971Z,46.33
2022-10-03T07:12:34.092Z,46.38
2022-10-03T07:18:17.501Z,45.96
2022-10-03T07:24:02.881Z,44.99
2022-10-03T07:29:50.521Z,41.05
2022-10-03T07:35:50.826Z,37.70
2022-10-03T07:41:25.105Z,36.18
2022-10-03T07:46:52.607Z,34.67
2022-10-03T07:52:40.458Z,33.03
2022-10-03T07:58:11.202Z,32.08
2022-10-03T08:04:09.716Z,32.08
2022-10-03T08:09:43.573Z,34.09
2022-10-03T08:15:27.190Z,36.05
2022-10-03T08:21:00.917Z,37.96
2022-10-03T08:26:48.084Z,39.36
2022-10-03T08:32:48.842Z,40.52
2022-10-03T08:38:10.652Z,40.90
2022-10-03T08:43:56.866Z,41.92
2022-10-03T08:49:40.877Z,42.15
2022-10-03T08:55:31.788Z,42.99
2022-10-03T09:01:12.071Z,43.19
2022-10-03T09:07:15.383Z,43.68
2022-10-03T09:13:06.207Z,43.97
2022-10-03T09:18:59.959Z,44.00
2022-10-03T09:24:44.361Z,43.93
2022-10-03T09:30:16.024Z,44.42
2022-10-03T09:35:40.361Z,44.36
2022-10-03T09:41:32.801Z,44.36
2022-10-03T09:47:24.311Z,44.74
2022-10-03T09:53:15.983Z,45.07
2022-10-03T09:59:15.104Z,45.00
2022-10-03T10:05:01.348Z,44.99
2022-10-03T10:11:00.704Z,44.92
2022-10-03T10:16:48.366Z,45.26
2022-10-03T10:22:32.018Z,45.03
2022-10-03T10:28:08.657Z,45.31
2022-10-03T10:34:07.874Z,45.41
2022-10-03T10:39:48.461Z,45.46
2022-10-03T10:45:51.464Z,45.21
2022-10-03T10:51:50.183Z,45.45
2022-10-03T10:57:48.995Z,45.76
2022-10-03T11:03:22.697Z,45.73
2022-10-03T11:09:06.163Z,45.64
2022-10-03T11:14:28.386Z,45.44
2022-10-03T11:20:10.377Z,45.76
2022-10-03T11:25:59.761Z,45.81
2022-10-03T11:31:38.245Z,45.49
2022-10-03T11:37:02.597Z,45.92
2022-10-03T11:42:53.469Z,45.53
2022-10-03T11:48:24.229Z,45.85
2022-10-03T11:54:26.670Z,46.00
2022-10-03T12:00:10.385Z,45.60
2022-10-03T12:06:15.985Z,45.77
2022-10-03T12:11:46.921Z,45.86
2022-10-03T12:17:18.046Z,45.86
2022-10-03T12:22:59.013Z,45.96
2022-10-03T12:28:30.556Z,45.52
2022-10-03T12:34:17.866Z,45.54
2022-10-03T12:39:48.680Z,45.57
2022-10-03T12:45:34.750Z,45.70
2022-10-03T12:51:20.273Z,45.70
2022-10-03T12:56:49.735Z,45.79
2022-10-03T13:02:23.010Z,46.02
2022-10-03T13:08:24.937Z,45.57
2022-10-03T13:14:06.422Z,44.82
2022-10-03T13:19:43.594Z,44.82
2022-10-03T13:25:18.369Z,44.57
2022-10-03T13:30:56.204Z,44.75
2022-10-03T13:36:37.497Z,45.30
2022-10-03T13:42:56.266Z,44.81
2022-10-03T13:48:27.187Z,45.01
2022-10-03T13:54:07.048Z,45.42
2022-10-03T13:59:52.644Z,45.61
2022-10-03T14:05:23.372Z,45.15
2022-10-03T14:11:10.604Z,45.33
2022-10-03T14:16:36.465Z,45.44
2022-10-03T14:22:22.836Z,45.34
2022-10-03T14:28:13.273Z,44.69
2022-10-03T14:33:47.005Z,44.70
2022-10-03T14:39:38.920Z,44.57
2022-10-03T14:45:17.901Z,45.08
2022-10-03T14:50:42.159Z,45.04
2022-10-03T14:56:08.590Z,44.73
2022-10-03T15:01:30.728Z,44.79
2022-10-03T15:06:55.128Z,45.05
2022-10-03T15:12:25.208Z,44.83
2022-10-03T15:17:50.462Z,45.02
2022-10-03T15:23:36.640Z,44.89
2022-10-03T15:29:01.153Z,45.08
2022-10-03T15:34:28.328Z,45.21
2022-10-03T15:39:52.842Z,45.05
2022-10-03T15:45:22.054Z,45.13
2022-10-03T15:50:51.975Z,45.33
2022-10-03T15:56:24.115Z,45.06
2022-10-03T16:01:50.869Z,45.45
2022-10-03T16:07:35.858Z,45.65
2022-10-03T16:12:59.534Z,45.51
2022-10-03T16:18:21.214Z,45.53
2022-10-03T16:23:46.050Z,45.46
2022-10-03T16:29:17.830Z,45.68
2022-10-03T16:34:44.708Z,46.00
2022-10-03T16:40:08.308Z,45.92
2022-10-03T16:45:44.452Z,46.08
2022-10-03T16:51:15.985Z,45.88
2022-10-03T16:56:43.841Z,45.71
2022-10-03T17:02:14.585Z,46.10
2022-10-03T17:07:48.562Z,46.05
2022-10-03T17:13:13.116Z,46.36
2022-10-03T17:18:41.709Z,46.44
2022-10-03T17:24:09.430Z,46.16
2022-10-03T17:29:42.257Z,46.35
2022-10-03T17:35:20.336Z,46.31
2022-10-03T17:41:13.560Z,46.58
2022-10-03T17:46:45.201Z,46.21
2022-10-03T17:52:16.260Z,47.02
2022-10-03T17:57:50.761Z,47.92
2022-10-03T18:03:32.169Z,47.92
2022-10-03T18:08:56.057Z,47.94
2022-10-03T18:14:42.204Z,48.11
2022-10-03T18:20:40.162Z,48.04
2022-10-03T18:26:20.832Z,48.19
2022-10-03T18:31:55.831Z,47.86
2022-10-03T18:37:40.377Z,47.31
2022-10-03T18:43:06.182Z,47.22
2022-10-03T18:48:35.393Z,47.42
2022-10-03T18:54:03.288Z,47.34
2022-10-03T18:59:38.829Z,47.60
2022-10-03T19:05:08.475Z,47.34
2022-10-03T19:10:40.337Z,47.52
2022-10-03T19:16:10.791Z,47.55
2022-10-03T19:21:43.283Z,47.66
2022-10-03T19:27:18.505Z,48.15
2022-10-03T19:32:57.702Z,48.07
2022-10-03T19:38:28.738Z,48.56
2022-10-03T19:43:51.127Z,48.41
2022-10-03T19:49:26.331Z,48.75
2022-10-03T19:55:04.287Z,48.96
2022-10-03T20:00:37.350Z,48.66
2022-10-03T20:06:13.936Z,48.64
2022-10-03T20:12:04.162Z,48.42
2022-10-03T20:17:26.635Z,48.27
2022-10-03T20:22:49.560Z,48.34
2022-10-03T20:28:45.556Z,47.95
2022-10-03T20:34:15.342Z,48.52
2022-10-03T20:39:38.904Z,48.64
2022-10-03T20:45:38.914Z,48.57
2022-10-03T20:51:01.626Z,48.76
2022-10-03T20:56:36.289Z,48.52
2022-10-03T21:02:10.012Z,48.25
2022-10-03T21:07:37.539Z,48.83
2022-10-03T21:13:08.383Z,48.21
2022-10-03T21:18:41.046Z,48.48
2022-10-03T21:24:02.817Z,48.53
2022-10-03T21:29:24.375Z,48.34
2022-10-03T21:35:05.320Z,48.28
2022-10-03T21:40:36.381Z,48.43
2022-10-03T21:46:29.170Z,48.13
2022-10-03T21:52:09.519Z,48.48
2022-10-03T21:57:48.538Z,48.09
2022-10-03T22:03:24.106Z,48.48
2022-10-03T22:08:48.864Z,48.38
2022-10-03T22:14:48.687Z,48.14
2022-10-03T22:20:21.173Z,47.92
2022-10-03T22:26:21.496Z,48.03
2022-10-03T22:31:46.157Z,47.84
2022-10-03T22:37:08.025Z,48.09
2022-10-03T22:42:35.015Z,48.04
2022-10-03T22:48:01.979Z,47.99
2022-10-03T22:53:28.970Z,47.84
2022-10-03T22:58:52.189Z,48.23
2022-10-03T23:04:24.716Z,47.82
2022-10-03T23:10:02.970Z,48.08
2022-10-03T23:15:26.610Z,48.08
2022-10-03T23:21:06.415Z,47.67
2022-10-03T23:26:49.231Z,47.82
2022-10-03T23:32:11.617Z,47.81
2022-10-03T23:37:39.695Z,47.54
2022-10-03T23:43:19.256Z,47.89
2022-10-03T23:48:48.170Z,47.58
2022-10-03T23:54:12.679Z,47.70
2022-10-03T23:59:38.067Z,47.96
